sensor_id;sensor_type;location;lat;lon;timestamp;pressure;altitude;pressure_sealevel;temperature;humidity
48796;BME280;34607;48.520;-1.330;2022-09-29T00:00:59;98793.97;;;11.61;100.00
48796;BME280;34607;48.520;-1.330;2022-09-29T00:03:28;98788.13;;;11.46;100.00
48796;BME280;34607;48.520;-1.330;2022-09-29T00:05:55;98789.94;;;11.40;100.00
48796;BME280;34607;48.520;-1.330;2022-09-29T00:08:26;98795.13;;;11.40;100.00
48796;BME280;34607;48.520;-1.330;2022-09-29T00:10:53;98793.38;;;11.39;100.00
48796;BME280;34607;48.520;-1.330;2022-09-29T00:13:21;98789.06;;;11.41;100.00
48796;BME280;34607;48.520;-1.330;2022-09-29T00:15:56;98781.38;;;11.34;100.00
48796;BME280;34607;48.520;-1.330;2022-09-29T00:18:24;98793.34;;;11.42;100.00
48796;BME280;34607;48.520;-1.330;2022-09-29T00:20:58;98783.78;;;11.48;100.00
48796;BME280;34607;48.520;-1.330;2022-09-29T00:23:27;98779.41;;;11.53;100.00
48796;BME280;34607;48.520;-1.330;2022-09-29T00:25:59;98775.94;;;11.54;100.00
48796;BME280;34607;48.520;-1.330;2022-09-29T00:28:27;98785.38;;;11.58;100.00
48796;BME280;34607;48.520;-1.330;2022-09-29T00:30:54;98785.38;;;11.58;100.00
48796;BME280;34607;48.520;-1.330;2022-09-29T00:33:21;98786.22;;;11.60;100.00
48796;BME280;34607;48.520;-1.330;2022-09-29T00:35:55;98776.72;;;11.60;100.00
48796;BME280;34607;48.520;-1.330;2022-09-29T00:38:23;98770.75;;;11.54;100.00
48796;BME280;34607;48.520;-1.330;2022-09-29T00:40:51;98771.59;;;11.56;100.00
48796;BME280;34607;48.520;-1.330;2022-09-29T00:43:21;98774.22;;;11.53;100.00
48796;BME280;34607;48.520;-1.330;2022-09-29T00:45:50;98762.19;;;11.49;100.00
48796;BME280;34607;48.520;-1.330;2022-09-29T00:48:26;98761.25;;;11.53;100.00
48796;BME280;34607;48.520;-1.330;2022-09-29T00:50:58;98757.84;;;11.51;100.00
48796;BME280;34607;48.520;-1.330;2022-09-29T00:53:25;98768.19;;;11.52;100.00
48796;BME280;34607;48.520;-1.330;2022-09-29T00:55:57;98748.53;;;11.34;100.00
48796;BME280;34607;48.520;-1.330;2022-09-29T00:58:31;98762.25;;;11.41;100.00
48796;BME280;34607;48.520;-1.330;2022-09-29T01:00:59;98762.25;;;11.42;100.00
48796;BME280;34607;48.520;-1.330;2022-09-29T01:03:27;98771.72;;;11.47;100.00
48796;BME280;34607;48.520;-1.330;2022-09-29T01:05:57;98769.97;;;11.49;100.00
48796;BME280;34607;48.520;-1.330;2022-09-29T01:08:28;98770.81;;;11.49;100.00
48796;BME280;34607;48.520;-1.330;2022-09-29T01:11:00;98774.31;;;11.47;100.00
48796;BME280;34607;48.520;-1.330;2022-09-29T01:13:28;98781.13;;;11.54;100.00
48796;BME280;34607;48.520;-1.330;2022-09-29T01:15:55;98781.94;;;11.59;100.00
48796;BME280;34607;48.520;-1.330;2022-09-29T01:18:23;98774.22;;;11.53;100.00
48796;BME280;34607;48.520;-1.330;2022-09-29T01:20:55;98783.56;;;11.66;100.00
48796;BME280;34607;48.520;-1.330;2022-09-29T01:23:42;98780.97;;;11.65;100.00
48796;BME280;34607;48.520;-1.330;2022-09-29T01:27:02;98757.78;;;11.54;100.00
48796;BME280;34607;48.520;-1.330;2022-09-29T01:30:02;98772.53;;;11.52;100.00
48796;BME280;34607;48.520;-1.330;2022-09-29T01:32:43;98769.03;;;11.53;100.00
48796;BME280;34607;48.520;-1.330;2022-09-29T01:35:21;98771.63;;;11.53;100.00
48796;BME280;34607;48.520;-1.330;2022-09-29T01:37:57;98760.47;;;11.48;100.00
48796;BME280;34607;48.520;-1.330;2022-09-29T01:40:33;98762.22;;;11.46;100.00
48796;BME280;34607;48.520;-1.330;2022-09-29T01:43:07;98763.16;;;11.41;100.00
48796;BME280;34607;48.520;-1.330;2022-09-29T01:45:39;98770.84;;;11.44;100.00
48796;BME280;34607;48.520;-1.330;2022-09-29T01:48:14;98756.19;;;11.45;100.00
48796;BME280;34607;48.520;-1.330;2022-09-29T01:50:46;98758.81;;;11.42;100.00
48796;BME280;34607;48.520;-1.330;2022-09-29T01:53:17;98756.22;;;11.40;100.00
48796;BME280;34607;48.520;-1.330;2022-09-29T01:55:48;98751.22;;;11.27;100.00
48796;BME280;34607;48.520;-1.330;2022-09-29T01:58:20;98751.31;;;11.19;100.00
48796;BME280;34607;48.520;-1.330;2022-09-29T02:00:57;98760.97;;;11.04;100.00
48796;BME280;34607;48.520;-1.330;2022-09-29T02:03:31;98753.25;;;11.01;100.00
48796;BME280;34607;48.520;-1.330;2022-09-29T02:06:03;98752.41;;;10.99;100.00
48796;BME280;34607;48.520;-1.330;2022-09-29T02:08:37;98758.38;;;11.06;100.00
48796;BME280;34607;48.520;-1.330;2022-09-29T02:11:06;98755.78;;;11.08;100.00
48796;BME280;34607;48.520;-1.330;2022-09-29T02:13:37;98752.34;;;11.05;100.00
48796;BME280;34607;48.520;-1.330;2022-09-29T02:16:08;98749.81;;;10.99;100.00
48796;BME280;34607;48.520;-1.330;2022-09-29T02:18:43;98744.63;;;10.99;100.00
48796;BME280;34607;48.520;-1.330;2022-09-29T02:21:13;98741.19;;;10.99;100.00
48796;BME280;34607;48.520;-1.330;2022-09-29T02:23:40;98733.47;;;10.93;100.00
48796;BME280;34607;48.520;-1.330;2022-09-29T02:26:08;98731.91;;;10.78;100.00
48796;BME280;34607;48.520;-1.330;2022-09-29T02:28:36;98736.16;;;10.86;100.00
48796;BME280;34607;48.520;-1.330;2022-09-29T02:31:04;98730.91;;;10.91;100.00
48796;BME280;34607;48.520;-1.330;2022-09-29T02:33:32;98732.56;;;10.98;100.00
48796;BME280;34607;48.520;-1.330;2022-09-29T02:36:11;98730.84;;;10.97;100.00
48796;BME280;34607;48.520;-1.330;2022-09-29T02:38:47;98730.91;;;10.93;100.00
48796;BME280;34607;48.520;-1.330;2022-09-29T02:41:27;98732.66;;;10.91;100.00
48796;BME280;34607;48.520;-1.330;2022-09-29T02:44:16;98727.59;;;10.81;100.00
48796;BME280;34607;48.520;-1.330;2022-09-29T02:49:50;98726.94;;;10.59;100.00
48796;BME280;34607;48.520;-1.330;2022-09-29T02:52:26;98730.34;;;10.64;100.00
48796;BME280;34607;48.520;-1.330;2022-09-29T02:55:04;98732.00;;;10.70;100.00
48796;BME280;34607;48.520;-1.330;2022-09-29T02:57:39;98724.25;;;10.68;100.00
48796;BME280;34607;48.520;-1.330;2022-09-29T03:00:14;98725.06;;;10.72;100.00
48796;BME280;34607;48.520;-1.330;2022-09-29T03:02:43;98728.50;;;10.76;100.00
48796;BME280;34607;48.520;-1.330;2022-09-29T03:05:11;98730.25;;;10.74;100.00
48796;BME280;34607;48.520;-1.330;2022-09-29T03:07:40;98728.50;;;10.74;100.00
48796;BME280;34607;48.520;-1.330;2022-09-29T03:10:09;98734.56;;;10.73;100.00
48796;BME280;34607;48.520;-1.330;2022-09-29T03:12:36;98714.03;;;10.55;100.00
48796;BME280;34607;48.520;-1.330;2022-09-29T03:15:05;98732.88;;;10.67;100.00
48796;BME280;34607;48.520;-1.330;2022-09-29T03:17:32;98727.69;;;10.69;100.00
48796;BME280;34607;48.520;-1.330;2022-09-29T03:20:00;98727.69;;;10.69;100.00
48796;BME280;34607;48.520;-1.330;2022-09-29T03:22:27;98728.59;;;10.66;100.00
48796;BME280;34607;48.520;-1.330;2022-09-29T03:24:56;98731.22;;;10.63;100.00
48796;BME280;34607;48.520;-1.330;2022-09-29T03:27:23;98731.22;;;10.62;100.00
48796;BME280;34607;48.520;-1.330;2022-09-29T03:29:50;98726.06;;;10.60;100.00
48796;BME280;34607;48.520;-1.330;2022-09-29T03:32:17;98726.06;;;10.59;100.00
48796;BME280;34607;48.520;-1.330;2022-09-29T03:34:44;98723.50;;;10.57;100.00
48796;BME280;34607;48.520;-1.330;2022-09-29T03:37:11;98722.66;;;10.55;100.00
48796;BME280;34607;48.520;-1.330;2022-09-29T03:39:38;98725.25;;;10.55;100.00
48796;BME280;34607;48.520;-1.330;2022-09-29T03:42:07;98728.75;;;10.53;100.00
48796;BME280;34607;48.520;-1.330;2022-09-29T03:44:34;98733.03;;;10.54;100.00
48796;BME280;34607;48.520;-1.330;2022-09-29T03:47:01;98724.41;;;10.52;100.00
48796;BME280;34607;48.520;-1.330;2022-09-29T03:49:28;98727.94;;;10.47;100.00
48796;BME280;34607;48.520;-1.330;2022-09-29T03:51:55;98722.72;;;10.51;100.00
48796;BME280;34607;48.520;-1.330;2022-09-29T03:54:22;98717.50;;;10.54;100.00
48796;BME280;34607;48.520;-1.330;2022-09-29T03:56:52;98716.63;;;10.56;100.00
48796;BME280;34607;48.520;-1.330;2022-09-29T03:59:20;98723.56;;;10.54;100.00
48796;BME280;34607;48.520;-1.330;2022-09-29T04:01:47;98721.84;;;10.48;100.00
48796;BME280;34607;48.520;-1.330;2022-09-29T04:04:14;98712.44;;;10.40;100.00
48796;BME280;34607;48.520;-1.330;2022-09-29T04:06:41;98719.44;;;10.30;100.00
48796;BME280;34607;48.520;-1.330;2022-09-29T04:09:08;98721.16;;;10.28;100.00
48796;BME280;34607;48.520;-1.330;2022-09-29T04:11:36;98722.97;;;10.20;100.00
48796;BME280;34607;48.520;-1.330;2022-09-29T04:14:03;98718.66;;;10.20;100.00
48796;BME280;34607;48.520;-1.330;2022-09-29T04:16:31;98721.19;;;10.25;100.00
48796;BME280;34607;48.520;-1.330;2022-09-29T04:18:59;98717.72;;;10.27;100.00
48796;BME280;34607;48.520;-1.330;2022-09-29T04:21:26;98722.06;;;10.25;100.00
48796;BME280;34607;48.520;-1.330;2022-09-29T04:23:53;98714.34;;;10.19;100.00
48796;BME280;34607;48.520;-1.330;2022-09-29T04:26:20;98720.31;;;10.24;100.00
48796;BME280;34607;48.520;-1.330;2022-09-29T04:28:47;98715.16;;;10.24;100.00
48796;BME280;34607;48.520;-1.330;2022-09-29T04:31:14;98720.41;;;10.18;100.00
48796;BME280;34607;48.520;-1.330;2022-09-29T04:33:42;98722.97;;;10.18;100.00
48796;BME280;34607;48.520;-1.330;2022-09-29T04:36:09;98714.41;;;10.11;100.00
48796;BME280;34607;48.520;-1.330;2022-09-29T04:38:36;98734.16;;;10.20;100.00
48796;BME280;34607;48.520;-1.330;2022-09-29T04:41:04;98724.69;;;10.19;100.00
48796;BME280;34607;48.520;-1.330;2022-09-29T04:43:31;98729.91;;;10.15;100.00
48796;BME280;34607;48.520;-1.330;2022-09-29T04:46:03;98723.03;;;10.07;100.00
48796;BME280;34607;48.520;-1.330;2022-09-29T04:48:30;98726.53;;;10.05;100.00
48796;BME280;34607;48.520;-1.330;2022-09-29T04:50:59;98737.59;;;10.19;100.00
48796;BME280;34607;48.520;-1.330;2022-09-29T04:53:26;98737.59;;;10.19;100.00
48796;BME280;34607;48.520;-1.330;2022-09-29T04:55:53;98739.31;;;10.23;100.00
48796;BME280;34607;48.520;-1.330;2022-09-29T04:58:20;98744.47;;;10.26;100.00
48796;BME280;34607;48.520;-1.330;2022-09-29T05:00:47;98742.69;;;10.33;100.00
48796;BME280;34607;48.520;-1.330;2022-09-29T05:03:14;98748.72;;;10.37;100.00
48796;BME280;34607;48.520;-1.330;2022-09-29T05:05:41;98751.25;;;10.43;100.00
48796;BME280;34607;48.520;-1.330;2022-09-29T05:08:10;98737.44;;;10.44;100.00
48796;BME280;34607;48.520;-1.330;2022-09-29T05:10:37;98740.06;;;10.41;100.00
48796;BME280;34607;48.520;-1.330;2022-09-29T05:13:04;98732.31;;;10.39;100.00
48796;BME280;34607;48.520;-1.330;2022-09-29T05:15:31;98731.38;;;10.43;100.00
48796;BME280;34607;48.520;-1.330;2022-09-29T05:18:00;98734.78;;;10.48;100.00
48796;BME280;34607;48.520;-1.330;2022-09-29T05:20:28;98733.97;;;10.45;100.00
48796;BME280;34607;48.520;-1.330;2022-09-29T05:22:56;98738.28;;;10.46;100.00
48796;BME280;34607;48.520;-1.330;2022-09-29T05:25:26;98734.91;;;10.38;100.00
48796;BME280;34607;48.520;-1.330;2022-09-29T05:27:53;98736.53;;;10.46;100.00
48796;BME280;34607;48.520;-1.330;2022-09-29T05:30:20;98735.69;;;10.46;100.00
48796;BME280;34607;48.520;-1.330;2022-09-29T05:32:47;98738.31;;;10.43;100.00
48796;BME280;34607;48.520;-1.330;2022-09-29T05:35:15;98740.88;;;10.46;100.00
48796;BME280;34607;48.520;-1.330;2022-09-29T05:37:42;98739.97;;;10.50;100.00
48796;BME280;34607;48.520;-1.330;2022-09-29T05:40:09;98743.38;;;10.55;100.00
48796;BME280;34607;48.520;-1.330;2022-09-29T05:42:38;98742.41;;;10.62;100.00
48796;BME280;34607;48.520;-1.330;2022-09-29T05:45:06;98742.41;;;10.65;100.00
48796;BME280;34607;48.520;-1.330;2022-09-29T05:47:34;98737.19;;;10.68;100.00
48796;BME280;34607;48.520;-1.330;2022-09-29T05:50:02;98745.78;;;10.74;100.00
48796;BME280;34607;48.520;-1.330;2022-09-29T05:52:29;98748.31;;;10.78;100.00
48796;BME280;34607;48.520;-1.330;2022-09-29T05:54:56;98752.59;;;10.79;100.00
48796;BME280;34607;48.520;-1.330;2022-09-29T05:57:23;98750.00;;;10.82;100.00
48796;BME280;34607;48.520;-1.330;2022-09-29T05:59:52;98743.94;;;10.85;100.00
48796;BME280;34607;48.520;-1.330;2022-09-29T06:02:19;98731.06;;;10.76;100.00
48796;BME280;34607;48.520;-1.330;2022-09-29T06:04:46;98750.00;;;10.81;100.00
48796;BME280;34607;48.520;-1.330;2022-09-29T06:07:13;98750.94;;;10.77;100.00
48796;BME280;34607;48.520;-1.330;2022-09-29T06:09:40;98756.13;;;10.72;100.00
48796;BME280;34607;48.520;-1.330;2022-09-29T06:12:07;98756.13;;;10.72;100.00
48796;BME280;34607;48.520;-1.330;2022-09-29T06:14:34;98753.56;;;10.72;100.00
48796;BME280;34607;48.520;-1.330;2022-09-29T06:17:02;98753.56;;;10.71;100.00
48796;BME280;34607;48.520;-1.330;2022-09-29T06:19:29;98755.31;;;10.68;100.00
48796;BME280;34607;48.520;-1.330;2022-09-29T06:21:56;98756.97;;;10.74;100.00
48796;BME280;34607;48.520;-1.330;2022-09-29T06:24:24;98757.00;;;10.73;100.00
48796;BME280;34607;48.520;-1.330;2022-09-29T06:26:51;98756.16;;;10.71;100.00
48796;BME280;34607;48.520;-1.330;2022-09-29T06:29:18;98750.97;;;10.72;100.00
48796;BME280;34607;48.520;-1.330;2022-09-29T06:31:45;98749.28;;;10.70;100.00
48796;BME280;34607;48.520;-1.330;2022-09-29T06:34:13;98748.41;;;10.69;100.00
48796;BME280;34607;48.520;-1.330;2022-09-29T06:36:41;98746.69;;;10.71;100.00
48796;BME280;34607;48.520;-1.330;2022-09-29T06:39:27;98752.69;;;10.75;100.00
48796;BME280;34607;48.520;-1.330;2022-09-29T06:41:54;98756.88;;;10.85;100.00
48796;BME280;34607;48.520;-1.330;2022-09-29T06:44:23;98753.41;;;10.86;100.00
48796;BME280;34607;48.520;-1.330;2022-09-29T06:46:51;98760.22;;;10.93;100.00
48796;BME280;34607;48.520;-1.330;2022-09-29T06:49:19;98758.50;;;10.97;100.00
48796;BME280;34607;48.520;-1.330;2022-09-29T06:51:46;98767.91;;;11.02;100.00
48796;BME280;34607;48.520;-1.330;2022-09-29T06:54:15;98771.31;;;11.08;100.00
48796;BME280;34607;48.520;-1.330;2022-09-29T06:56:45;98773.81;;;11.14;100.00
48796;BME280;34607;48.520;-1.330;2022-09-29T06:59:13;98779.00;;;11.14;100.00
48796;BME280;34607;48.520;-1.330;2022-09-29T07:01:40;98772.97;;;11.12;100.00
48796;BME280;34607;48.520;-1.330;2022-09-29T07:04:07;98780.75;;;11.12;100.00
48796;BME280;34607;48.520;-1.330;2022-09-29T07:06:35;98773.00;;;11.09;100.00
48796;BME280;34607;48.520;-1.330;2022-09-29T07:09:02;98773.88;;;11.11;100.00
48796;BME280;34607;48.520;-1.330;2022-09-29T07:11:29;98767.81;;;11.12;100.00
48796;BME280;34607;48.520;-1.330;2022-09-29T07:13:57;98771.16;;;11.20;100.00
48796;BME280;34607;48.520;-1.330;2022-09-29T07:16:24;98771.13;;;11.23;100.00
48796;BME280;34607;48.520;-1.330;2022-09-29T07:18:51;98774.53;;;11.28;100.00
48796;BME280;34607;48.520;-1.330;2022-09-29T07:21:19;98775.38;;;11.30;100.00
48796;BME280;34607;48.520;-1.330;2022-09-29T07:23:48;98758.19;;;11.23;100.00
48796;BME280;34607;48.520;-1.330;2022-09-29T07:26:16;98776.19;;;11.34;100.00
48796;BME280;34607;48.520;-1.330;2022-09-29T07:28:44;98768.44;;;11.32;100.00
48796;BME280;34607;48.520;-1.330;2022-09-29T07:31:13;98781.31;;;11.38;100.00
48796;BME280;34607;48.520;-1.330;2022-09-29T07:33:40;98782.97;;;11.42;100.00
48796;BME280;34607;48.520;-1.330;2022-09-29T07:36:07;98782.09;;;11.47;100.00
48796;BME280;34607;48.520;-1.330;2022-09-29T07:38:35;98775.94;;;11.54;100.00
48796;BME280;34607;48.520;-1.330;2022-09-29T07:41:04;98774.19;;;11.56;100.00
48796;BME280;34607;48.520;-1.330;2022-09-29T07:43:32;98774.22;;;11.51;100.00
48796;BME280;34607;48.520;-1.330;2022-09-29T07:45:59;98780.31;;;11.50;100.00
48796;BME280;34607;48.520;-1.330;2022-09-29T07:48:28;98786.31;;;11.54;100.00
48796;BME280;34607;48.520;-1.330;2022-09-29T07:50:59;98781.97;;;11.56;100.00
48796;BME280;34607;48.520;-1.330;2022-09-29T07:53:27;98779.34;;;11.59;100.00
48796;BME280;34607;48.520;-1.330;2022-09-29T07:55:54;98793.03;;;11.69;100.00
48796;BME280;34607;48.520;-1.330;2022-09-29T07:58:22;98790.38;;;11.72;100.00
48796;BME280;34607;48.520;-1.330;2022-09-29T08:00:53;98785.91;;;11.85;100.00
48796;BME280;34607;48.520;-1.330;2022-09-29T08:03:20;98795.25;;;11.99;100.00
48796;BME280;34607;48.520;-1.330;2022-09-29T08:05:50;98790.66;;;12.17;100.00
48796;BME280;34607;48.520;-1.330;2022-09-29T08:08:17;98799.88;;;12.35;100.00
48796;BME280;34607;48.520;-1.330;2022-09-29T08:10:44;98801.16;;;12.62;100.00
48796;BME280;34607;48.520;-1.330;2022-09-29T08:13:11;98800.81;;;12.82;100.00
48796;BME280;34607;48.520;-1.330;2022-09-29T08:15:40;98797.53;;;13.19;100.00
48796;BME280;34607;48.520;-1.330;2022-09-29T08:18:07;98801.91;;;13.62;100.00
48796;BME280;34607;48.520;-1.330;2022-09-29T08:20:34;98808.81;;;14.04;100.00
48796;BME280;34607;48.520;-1.330;2022-09-29T08:23:02;98784.75;;;14.30;100.00
48796;BME280;34607;48.520;-1.330;2022-09-29T08:25:29;98801.00;;;14.77;100.00
48796;BME280;34607;48.520;-1.330;2022-09-29T08:27:56;98795.03;;;15.05;100.00
48796;BME280;34607;48.520;-1.330;2022-09-29T08:30:23;98805.41;;;15.08;100.00
48796;BME280;34607;48.520;-1.330;2022-09-29T08:32:52;98806.69;;;14.92;100.00
48796;BME280;34607;48.520;-1.330;2022-09-29T08:35:20;98808.06;;;14.72;100.00
48796;BME280;34607;48.520;-1.330;2022-09-29T08:37:47;98813.63;;;14.57;100.00
48796;BME280;34607;48.520;-1.330;2022-09-29T08:40:14;98814.00;;;14.41;100.00
48796;BME280;34607;48.520;-1.330;2022-09-29T08:42:49;98813.56;;;14.24;100.00
48796;BME280;34607;48.520;-1.330;2022-09-29T08:45:26;98830.97;;;14.20;100.00
48796;BME280;34607;48.520;-1.330;2022-09-29T08:48:02;98834.75;;;14.09;100.00
48796;BME280;34607;48.520;-1.330;2022-09-29T08:50:33;98833.16;;;14.00;100.00
48796;BME280;34607;48.520;-1.330;2022-09-29T08:53:04;98833.41;;;13.89;100.00
48796;BME280;34607;48.520;-1.330;2022-09-29T08:55:39;98829.06;;;13.90;100.00
48796;BME280;34607;48.520;-1.330;2022-09-29T08:58:10;98831.81;;;13.83;100.00
48796;BME280;34607;48.520;-1.330;2022-09-29T09:00:42;98824.91;;;13.81;100.00
48796;BME280;34607;48.520;-1.330;2022-09-29T09:03:28;98817.03;;;13.84;100.00
48796;BME280;34607;48.520;-1.330;2022-09-29T09:06:09;98825.81;;;13.80;100.00
48796;BME280;34607;48.520;-1.330;2022-09-29T09:08:47;98824.91;;;13.81;100.00
48796;BME280;34607;48.520;-1.330;2022-09-29T09:11:27;98832.59;;;13.87;100.00
48796;BME280;34607;48.520;-1.330;2022-09-29T09:14:06;98838.50;;;13.95;100.00
48796;BME280;34607;48.520;-1.330;2022-09-29T09:16:41;98840.88;;;14.04;100.00
48796;BME280;34607;48.520;-1.330;2022-09-29T09:22:19;98821.09;;;13.97;100.00
48796;BME280;34607;48.520;-1.330;2022-09-29T09:24:54;98839.03;;;14.10;100.00
48796;BME280;34607;48.520;-1.330;2022-09-29T09:27:26;98847.56;;;14.16;100.00
48796;BME280;34607;48.520;-1.330;2022-09-29T09:30:02;98851.72;;;14.23;100.00
48796;BME280;34607;48.520;-1.330;2022-09-29T09:32:34;98846.25;;;14.36;100.00
48796;BME280;34607;48.520;-1.330;2022-09-29T09:35:11;98844.34;;;14.42;100.00
48796;BME280;34607;48.520;-1.330;2022-09-29T09:37:45;98848.59;;;14.47;100.00
48796;BME280;34607;48.520;-1.330;2022-09-29T09:40:16;98859.09;;;14.43;100.00
48796;BME280;34607;48.520;-1.330;2022-09-29T09:42:48;98850.75;;;14.29;100.00
48796;BME280;34607;48.520;-1.330;2022-09-29T09:45:24;98855.50;;;14.10;100.00
48796;BME280;34607;48.520;-1.330;2022-09-29T09:47:57;98861.78;;;14.00;100.00
48796;BME280;34607;48.520;-1.330;2022-09-29T09:50:25;98869.91;;;13.86;100.00
48796;BME280;34607;48.520;-1.330;2022-09-29T09:52:57;98877.25;;;13.65;100.00
48796;BME280;34607;48.520;-1.330;2022-09-29T09:55:27;98872.31;;;13.52;100.00
48796;BME280;34607;48.520;-1.330;2022-09-29T09:58:17;98872.38;;;13.48;100.00
48796;BME280;34607;48.520;-1.330;2022-09-29T10:00:52;98874.41;;;13.34;100.00
48796;BME280;34607;48.520;-1.330;2022-09-29T10:03:21;98882.41;;;13.20;100.00
48796;BME280;34607;48.520;-1.330;2022-09-29T10:05:48;98872.44;;;12.97;100.00
48796;BME280;34607;48.520;-1.330;2022-09-29T10:08:22;98888.91;;;12.96;100.00
48796;BME280;34607;48.520;-1.330;2022-09-29T10:10:50;98895.19;;;12.83;100.00
48796;BME280;34607;48.520;-1.330;2022-09-29T10:13:18;98912.38;;;12.90;100.00
48796;BME280;34607;48.520;-1.330;2022-09-29T10:15:49;98907.22;;;12.88;100.00
48796;BME280;34607;48.520;-1.330;2022-09-29T10:18:22;98911.72;;;12.79;100.00
48796;BME280;34607;48.520;-1.330;2022-09-29T10:20:51;98905.84;;;12.64;100.00
48796;BME280;34607;48.520;-1.330;2022-09-29T10:23:31;98912.75;;;12.67;100.00
48796;BME280;34607;48.520;-1.330;2022-09-29T10:26:02;98912.66;;;12.73;100.00
48796;BME280;34607;48.520;-1.330;2022-09-29T10:28:39;98909.25;;;12.69;100.00
48796;BME280;34607;48.520;-1.330;2022-09-29T10:31:23;98907.53;;;12.68;100.00
48796;BME280;34607;48.520;-1.330;2022-09-29T10:33:55;98902.22;;;12.76;100.00
48796;BME280;34607;48.520;-1.330;2022-09-29T10:36:24;98892.53;;;12.87;100.00
48796;BME280;34607;48.520;-1.330;2022-09-29T10:38:53;98906.09;;;13.03;100.00
48796;BME280;34607;48.520;-1.330;2022-09-29T10:41:21;98907.59;;;13.18;100.00
48796;BME280;34607;48.520;-1.330;2022-09-29T10:43:50;98901.31;;;13.32;100.00
48796;BME280;34607;48.520;-1.330;2022-09-29T10:46:37;98900.28;;;13.42;100.00
48796;BME280;34607;48.520;-1.330;2022-09-29T10:49:15;98900.84;;;13.56;100.00
48796;BME280;34607;48.520;-1.330;2022-09-29T10:51:53;98905.81;;;13.68;100.00
48796;BME280;34607;48.520;-1.330;2022-09-29T10:54:24;98903.91;;;13.78;100.00
48796;BME280;34607;48.520;-1.330;2022-09-29T10:56:53;98890.13;;;13.73;100.00
48796;BME280;34607;48.520;-1.330;2022-09-29T10:59:21;98886.63;;;13.74;100.00
48796;BME280;34607;48.520;-1.330;2022-09-29T11:01:52;98913.25;;;13.87;100.00
48796;BME280;34607;48.520;-1.330;2022-09-29T11:04:23;98910.78;;;13.79;100.00
48796;BME280;34607;48.520;-1.330;2022-09-29T11:06:52;98910.97;;;13.72;100.00
48796;BME280;34607;48.520;-1.330;2022-09-29T11:09:37;98907.66;;;13.63;100.00
48796;BME280;34607;48.520;-1.330;2022-09-29T11:12:10;98916.13;;;13.73;100.00
48796;BME280;34607;48.520;-1.330;2022-09-29T11:14:50;98921.88;;;13.89;100.00
48796;BME280;34607;48.520;-1.330;2022-09-29T11:17:22;98913.97;;;13.95;100.00
48796;BME280;34607;48.520;-1.330;2022-09-29T11:19:50;98915.75;;;13.93;100.00
48796;BME280;34607;48.520;-1.330;2022-09-29T11:26:03;98913.63;;;14.11;100.00
48796;BME280;34607;48.520;-1.330;2022-09-29T11:28:56;98913.25;;;14.29;100.00
48796;BME280;34607;48.520;-1.330;2022-09-29T11:31:38;98918.25;;;14.38;100.00
48796;BME280;34607;48.520;-1.330;2022-09-29T11:34:42;98901.94;;;14.30;100.00
48796;BME280;34607;48.520;-1.330;2022-09-29T11:37:23;98909.44;;;14.44;100.00
48796;BME280;34607;48.520;-1.330;2022-09-29T11:40:00;98922.28;;;14.52;99.87
48796;BME280;34607;48.520;-1.330;2022-09-29T11:42:45;98919.78;;;14.47;99.20
48796;BME280;34607;48.520;-1.330;2022-09-29T11:45:19;98920.66;;;14.46;99.45
48796;BME280;34607;48.520;-1.330;2022-09-29T11:48:23;98929.94;;;14.58;98.02
48796;BME280;34607;48.520;-1.330;2022-09-29T11:50:59;98922.22;;;14.55;96.92
48796;BME280;34607;48.520;-1.330;2022-09-29T11:53:30;98937.03;;;14.51;96.04
48796;BME280;34607;48.520;-1.330;2022-09-29T11:56:06;98941.28;;;14.58;95.02
48796;BME280;34607;48.520;-1.330;2022-09-29T11:58:49;98942.78;;;14.69;96.17
48796;BME280;34607;48.520;-1.330;2022-09-29T12:01:29;98931.41;;;14.71;96.76
48796;BME280;34607;48.520;-1.330;2022-09-29T12:04:14;98946.69;;;14.87;96.96
48796;BME280;34607;48.520;-1.330;2022-09-29T12:06:52;98918.22;;;14.79;96.66
48796;BME280;34607;48.520;-1.330;2022-09-29T12:09:33;98938.78;;;14.91;96.00
48796;BME280;34607;48.520;-1.330;2022-09-29T12:12:05;98946.72;;;14.85;95.58
48796;BME280;34607;48.520;-1.330;2022-09-29T12:15:01;98948.53;;;14.82;94.41
48796;BME280;34607;48.520;-1.330;2022-09-29T12:17:33;98930.56;;;14.71;93.95
48796;BME280;34607;48.520;-1.330;2022-09-29T12:20:05;98935.75;;;14.72;94.12
48796;BME280;34607;48.520;-1.330;2022-09-29T12:22:41;98952.06;;;14.81;95.07
48796;BME280;34607;48.520;-1.330;2022-09-29T12:25:12;98946.84;;;14.81;94.92
48796;BME280;34607;48.520;-1.330;2022-09-29T12:27:41;98950.97;;;14.89;95.12
48796;BME280;34607;48.520;-1.330;2022-09-29T12:30:19;98946.22;;;15.07;95.22
48796;BME280;34607;48.520;-1.330;2022-09-29T12:32:51;98937.06;;;15.25;94.14
48796;BME280;34607;48.520;-1.330;2022-09-29T12:35:25;98939.81;;;15.53;92.85
48796;BME280;34607;48.520;-1.330;2022-09-29T12:37:56;98940.69;;;15.52;92.92
48796;BME280;34607;48.520;-1.330;2022-09-29T12:40:31;98942.31;;;15.58;92.94
48796;BME280;34607;48.520;-1.330;2022-09-29T12:43:08;98937.56;;;15.72;92.08
48796;BME280;34607;48.520;-1.330;2022-09-29T12:45:45;98934.91;;;15.75;91.73
48796;BME280;34607;48.520;-1.330;2022-09-29T12:48:30;98944.34;;;15.79;90.68
48796;BME280;34607;48.520;-1.330;2022-09-29T12:51:02;98942.88;;;15.69;91.20
48796;BME280;34607;48.520;-1.330;2022-09-29T12:53:38;98945.91;;;15.52;90.73
48796;BME280;34607;48.520;-1.330;2022-09-29T12:56:13;98941.78;;;15.45;91.09
48796;BME280;34607;48.520;-1.330;2022-09-29T12:58:48;98933.22;;;16.04;91.27
48796;BME280;34607;48.520;-1.330;2022-09-29T13:01:24;98932.00;;;16.45;88.46
48796;BME280;34607;48.520;-1.330;2022-09-29T13:04:33;98936.59;;;16.65;86.90
48796;BME280;34607;48.520;-1.330;2022-09-29T13:07:38;98941.34;;;16.81;87.72
48796;BME280;34607;48.520;-1.330;2022-09-29T13:10:31;98938.53;;;16.89;86.25
48796;BME280;34607;48.520;-1.330;2022-09-29T13:13:25;98931.09;;;16.75;86.05